Time;durP1;ratioP1;P1;durP2;ratioP2;P2;SDS_P1;SDS_P2;PMS_P1;PMS_P2;Temp;Humidity;BMP_temperature;BMP_pressure;BME280_temperature;BME280_humidity;BME280_pressure;Samples;Min_cycle;Max_cycle;Signal;HPM_P1;HPM_P2
2022/06/26 00:01:42;;;;;;;22.60;18.35;;;17.40;99.90;;;;;;4938334;28;20536;-82
2022/06/26 00:04:07;;;;;;;23.77;18.42;;;17.40;99.90;;;;;;4937864;29;20047;-81
2022/06/26 00:06:33;;;;;;;21.90;17.50;;;17.30;99.90;;;;;;4910952;29;20130;-82
2022/06/26 00:08:59;;;;;;;21.60;17.95;;;17.30;99.90;;;;;;4925749;29;20114;-82
2022/06/26 00:11:25;;;;;;;24.75;18.48;;;17.30;99.90;;;;;;4903508;29;20043;-82
2022/06/26 00:13:50;;;;;;;22.95;18.42;;;17.20;99.90;;;;;;4925054;29;20035;-82
2022/06/26 00:16:16;;;;;;;24.65;18.00;;;17.20;99.90;;;;;;4942979;28;20078;-82
2022/06/26 00:18:42;;;;;;;24.02;18.50;;;17.20;99.90;;;;;;4948202;28;20508;-82
2022/06/26 00:21:08;;;;;;;21.75;17.45;;;17.20;99.90;;;;;;4921168;28;20051;-82
2022/06/26 00:23:34;;;;;;;23.38;17.88;;;17.20;99.90;;;;;;4944994;29;20141;-82
2022/06/26 00:26:02;;;;;;;19.83;17.20;;;17.20;99.90;;;;;;4927828;29;20043;-81
2022/06/26 00:28:28;;;;;;;20.58;16.17;;;17.20;99.90;;;;;;4928984;29;20074;-82
2022/06/26 00:30:55;;;;;;;23.02;17.20;;;17.20;99.90;;;;;;4925820;29;20095;-81
2022/06/26 00:33:21;;;;;;;19.90;17.25;;;17.20;99.90;;;;;;4927372;29;20047;-82
2022/06/26 00:35:47;;;;;;;23.08;17.90;;;17.20;99.90;;;;;;4911512;29;20126;-82
2022/06/26 00:38:13;;;;;;;20.88;17.20;;;17.20;99.90;;;;;;4926486;29;20126;-81
2022/06/26 00:40:40;;;;;;;19.90;16.90;;;17.20;99.90;;;;;;4945917;28;20052;-82
2022/06/26 00:43:07;;;;;;;22.85;17.48;;;17.20;99.90;;;;;;4925465;29;20042;-83
2022/06/26 00:45:33;;;;;;;22.92;18.17;;;17.20;99.90;;;;;;4929645;29;20048;-83
2022/06/26 00:47:58;;;;;;;22.02;17.70;;;17.20;99.90;;;;;;4913263;29;20099;-82
2022/06/26 00:50:25;;;;;;;21.05;17.08;;;17.20;99.90;;;;;;4930730;29;20047;-82
2022/06/26 00:52:53;;;;;;;22.90;18.00;;;17.30;99.90;;;;;;4927788;29;20044;-83
2022/06/26 00:55:20;;;;;;;19.90;16.42;;;17.30;99.90;;;;;;4918403;29;20056;-84
2022/06/26 00:57:46;;;;;;;23.95;21.02;;;17.30;99.90;;;;;;4934497;28;20067;-84
2022/06/26 01:00:13;;;;;;;22.70;18.58;;;17.30;99.90;;;;;;4917823;29;20082;-85
2022/06/26 01:02:40;;;;;;;24.25;17.25;;;17.30;99.90;;;;;;4929963;29;20568;-84
2022/06/26 01:05:13;;;;;;;24.80;17.10;;;17.30;99.90;;;;;;4916761;29;20071;-83
2022/06/26 01:07:40;;;;;;;24.27;16.35;;;17.30;99.90;;;;;;4929323;29;20043;-84
2022/06/26 01:10:06;;;;;;;21.55;16.63;;;17.30;99.90;;;;;;4940396;29;20046;-84
2022/06/26 01:12:41;;;;;;;21.13;15.73;;;17.30;99.90;;;;;;4933539;29;20417;-84
2022/06/26 01:15:08;;;;;;;20.35;14.77;;;17.30;99.90;;;;;;4949100;28;20552;-84
2022/06/26 01:17:35;;;;;;;20.88;14.95;;;17.40;99.90;;;;;;4930834;29;20513;-84
2022/06/26 01:20:04;;;;;;;21.15;15.48;;;17.40;99.90;;;;;;4940899;29;20048;-84
2022/06/26 01:22:36;;;;;;;21.50;14.80;;;17.40;99.90;;;;;;4945211;29;20048;-84
2022/06/26 01:25:03;;;;;;;20.02;14.95;;;17.40;99.90;;;;;;4949023;29;20055;-84
2022/06/26 01:27:28;;;;;;;21.48;14.10;;;17.40;99.90;;;;;;4940172;29;20051;-85
2022/06/26 01:29:54;;;;;;;18.77;13.60;;;17.40;99.90;;;;;;4965702;28;20079;-85
2022/06/26 01:32:20;;;;;;;19.25;12.98;;;17.40;99.90;;;;;;4945097;29;20070;-85
2022/06/26 01:34:46;;;;;;;19.50;13.15;;;17.40;99.90;;;;;;4953569;29;20095;-84
2022/06/26 01:37:11;;;;;;;16.15;12.27;;;17.40;99.90;;;;;;4966473;28;20122;-84
2022/06/26 01:39:37;;;;;;;16.63;12.00;;;17.40;99.90;;;;;;4939392;29;20051;-85
2022/06/26 01:42:03;;;;;;;15.98;10.98;;;17.40;99.90;;;;;;4930792;29;20557;-84
2022/06/26 01:44:29;;;;;;;18.13;11.38;;;17.40;99.90;;;;;;4923141;29;20126;-86
2022/06/26 01:46:54;;;;;;;16.25;10.48;;;17.40;99.90;;;;;;4923548;29;20032;-84
2022/06/26 01:49:23;;;;;;;15.43;10.05;;;17.40;99.90;;;;;;4930297;29;20106;-85
2022/06/26 01:51:48;;;;;;;14.88;10.05;;;17.30;99.90;;;;;;4941151;29;20097;-83
2022/06/26 01:54:16;;;;;;;13.20;8.93;;;17.30;99.90;;;;;;4930806;29;20050;-85
2022/06/26 01:56:43;;;;;;;16.40;9.32;;;17.40;99.90;;;;;;4934054;29;20047;-84
2022/06/26 01:59:08;;;;;;;13.95;8.52;;;17.30;99.90;;;;;;4906712;29;20078;-85
2022/06/26 02:01:34;;;;;;;12.40;8.60;;;17.30;99.90;;;;;;4923435;29;20467;-85
2022/06/26 02:04:00;;;;;;;13.90;8.55;;;17.30;99.90;;;;;;4926698;28;20055;-85
2022/06/26 02:06:25;;;;;;;12.07;8.05;;;17.40;99.90;;;;;;4931303;29;20043;-86
2022/06/26 02:08:51;;;;;;;12.10;7.43;;;17.30;99.90;;;;;;4939758;28;20111;-86
2022/06/26 02:14:01;;;;;;;11.40;8.18;;;17.30;99.90;;;;;;4947140;28;20297;-86
2022/06/26 02:16:27;;;;;;;17.48;9.00;;;17.30;99.90;;;;;;4945336;29;20127;-86
2022/06/26 02:18:55;;;;;;;14.80;8.50;;;17.30;99.90;;;;;;4922817;29;20191;-86
2022/06/26 02:21:23;;;;;;;16.63;8.27;;;17.30;99.90;;;;;;4921575;29;20231;-85
2022/06/26 02:23:51;;;;;;;18.63;8.05;;;17.20;99.90;;;;;;4935715;29;20065;-85
2022/06/26 02:26:18;;;;;;;16.27;9.18;;;17.30;99.90;;;;;;4922756;29;20590;-85
2022/06/26 02:28:45;;;;;;;14.73;9.02;;;17.30;99.90;;;;;;4905056;29;20509;-86
2022/06/26 02:31:13;;;;;;;19.77;8.65;;;17.30;99.90;;;;;;4922873;29;20539;-88
2022/06/26 02:33:39;;;;;;;15.68;8.27;;;17.30;99.90;;;;;;4911874;29;20043;-91
2022/06/26 02:36:07;;;;;;;11.65;7.47;;;17.30;99.90;;;;;;4925376;29;20039;-91
2022/06/26 02:38:34;;;;;;;15.55;8.57;;;17.20;99.90;;;;;;4937922;29;20051;-92
2022/06/26 02:41:00;;;;;;;14.18;9.07;;;17.20;99.90;;;;;;4934316;29;20054;-92
2022/06/26 02:43:26;;;;;;;15.80;8.55;;;17.10;99.90;;;;;;4930383;29;20035;-91
2022/06/26 02:45:53;;;;;;;13.70;7.95;;;17.20;99.90;;;;;;4924378;29;20039;-91
2022/06/26 02:48:20;;;;;;;11.52;7.45;;;17.20;99.90;;;;;;4910241;29;20099;-89
2022/06/26 02:50:49;;;;;;;11.30;7.60;;;17.10;99.90;;;;;;4926618;29;20049;-91
2022/06/26 02:53:16;;;;;;;13.07;6.50;;;17.20;99.90;;;;;;4926370;29;20461;-89
2022/06/26 02:55:42;;;;;;;10.95;6.18;;;17.10;99.90;;;;;;4921535;29;20050;-90
2022/06/26 02:58:07;;;;;;;11.18;6.05;;;17.20;99.90;;;;;;4942555;29;20079;-92
2022/06/26 03:04:57;;;;;;;9.38;6.13;;;17.00;99.90;;;;;;4921149;29;20059;-91
2022/06/26 03:07:23;;;;;;;7.85;5.35;;;17.00;99.90;;;;;;4834616;29;20576;-90
2022/06/26 03:09:48;;;;;;;12.68;5.60;;;17.00;99.90;;;;;;4884662;29;20135;-90
2022/06/26 03:12:15;;;;;;;11.43;5.65;;;17.00;99.90;;;;;;4928872;29;20134;-90
2022/06/26 03:14:41;;;;;;;10.20;5.95;;;17.10;99.90;;;;;;4915320;29;20039;-90
2022/06/26 03:17:07;;;;;;;10.00;5.93;;;17.00;99.90;;;;;;4932522;29;20036;-90
2022/06/26 03:19:33;;;;;;;8.65;5.60;;;17.00;99.90;;;;;;4920830;29;20107;-90
2022/06/26 03:21:59;;;;;;;9.30;5.47;;;17.00;99.90;;;;;;4920983;29;20058;-90
2022/06/26 03:24:24;;;;;;;9.82;5.38;;;17.00;99.90;;;;;;4942502;28;20040;-91
2022/06/26 03:26:50;;;;;;;10.68;5.90;;;17.00;99.90;;;;;;4924831;29;20441;-91
2022/06/26 03:29:16;;;;;;;8.73;5.75;;;17.00;99.90;;;;;;4923247;29;20406;-90
2022/06/26 03:31:42;;;;;;;13.65;5.82;;;16.90;99.90;;;;;;4924947;29;20051;-92
2022/06/26 03:34:08;;;;;;;12.65;6.20;;;17.00;99.90;;;;;;4924475;29;20044;-92
2022/06/26 03:36:34;;;;;;;10.02;5.47;;;17.00;99.90;;;;;;4931599;29;20490;-91
2022/06/26 03:39:01;;;;;;;9.15;5.45;;;16.90;99.90;;;;;;4918911;29;20040;-90
2022/06/26 03:41:27;;;;;;;9.82;5.03;;;17.00;99.90;;;;;;4945430;29;20401;-90
2022/06/26 03:43:53;;;;;;;10.10;5.00;;;17.00;99.90;;;;;;4930076;29;20044;-91
2022/06/26 03:46:19;;;;;;;7.47;4.50;;;16.90;99.90;;;;;;4923287;29;20036;-90
2022/06/26 03:48:46;;;;;;;7.70;4.40;;;16.90;99.90;;;;;;4935479;29;20056;-91
2022/06/26 03:51:12;;;;;;;7.40;4.00;;;16.90;99.90;;;;;;4921306;29;20087;-91
2022/06/26 03:53:38;;;;;;;6.45;4.20;;;16.90;99.90;;;;;;4920543;29;20088;-92
2022/06/26 03:56:04;;;;;;;8.82;3.70;;;17.00;99.90;;;;;;4932040;29;20036;-91
2022/06/26 03:58:30;;;;;;;10.25;4.10;;;17.00;99.90;;;;;;4912501;29;20044;-91
2022/06/26 04:00:56;;;;;;;7.38;4.50;;;16.90;99.90;;;;;;4927281;29;20031;-91
2022/06/26 04:03:22;;;;;;;5.72;3.38;;;17.10;99.90;;;;;;4935295;29;20492;-92
2022/06/26 04:05:50;;;;;;;7.95;3.47;;;17.00;99.90;;;;;;4930817;29;20131;-93
2022/06/26 04:08:16;;;;;;;8.57;3.60;;;17.00;99.90;;;;;;4963640;28;20049;-92
2022/06/26 04:10:42;;;;;;;5.93;3.60;;;17.00;99.90;;;;;;4950705;29;20043;-93
2022/06/26 04:13:11;;;;;;;7.50;3.80;;;17.00;99.90;;;;;;4947661;29;20048;-93
2022/06/26 04:15:38;;;;;;;8.90;3.78;;;17.00;99.90;;;;;;4936801;29;20051;-92
2022/06/26 04:18:05;;;;;;;7.88;3.58;;;17.00;99.90;;;;;;4925793;29;20113;-93
2022/06/26 04:20:46;;;;;;;7.97;4.20;;;17.00;99.90;;;;;;4919308;29;20042;-94
2022/06/26 04:26:53;;;;;;;8.33;3.97;;;17.10;99.90;;;;;;4933320;29;20114;-94
2022/06/26 04:29:19;;;;;;;7.00;3.60;;;17.10;99.90;;;;;;4943159;28;20055;-94
2022/06/26 04:31:47;;;;;;;6.15;3.88;;;17.10;99.90;;;;;;4927837;29;20111;-94
2022/06/26 04:34:12;;;;;;;8.15;4.63;;;17.10;99.90;;;;;;4931980;29;20165;-94
2022/06/26 04:36:38;;;;;;;7.32;3.80;;;17.10;99.90;;;;;;4931182;29;20048;-95
2022/06/26 04:39:07;;;;;;;6.85;3.90;;;17.10;99.90;;;;;;4927402;29;20047;-95
2022/06/26 04:41:36;;;;;;;8.00;3.90;;;17.10;99.90;;;;;;4930246;29;20099;-95
2022/06/26 04:44:08;;;;;;;8.55;4.30;;;17.10;99.90;;;;;;4949747;28;20044;-94
2022/06/26 04:46:41;;;;;;;7.85;3.65;;;17.20;99.90;;;;;;4956581;29;20338;-94
2022/06/26 04:49:07;;;;;;;6.60;3.88;;;17.20;99.90;;;;;;4932202;29;20075;-93
2022/06/26 04:51:37;;;;;;;10.15;4.15;;;17.20;99.90;;;;;;4930182;29;20044;-93
2022/06/26 04:54:04;;;;;;;9.55;4.28;;;17.20;99.90;;;;;;4926613;29;20113;-93
2022/06/26 04:56:32;;;;;;;9.93;4.70;;;17.20;99.90;;;;;;4950228;29;20473;-93
2022/06/26 04:58:59;;;;;;;7.72;4.30;;;17.20;99.90;;;;;;4916611;29;20051;-94
2022/06/26 05:01:27;;;;;;;8.10;4.40;;;17.20;99.90;;;;;;4932337;29;20087;-94
2022/06/26 05:03:53;;;;;;;6.40;3.95;;;17.30;99.90;;;;;;4949519;29;20047;-94
2022/06/26 05:06:19;;;;;;;8.43;4.07;;;17.40;99.90;;;;;;4950985;28;20618;-92
2022/06/26 05:08:45;;;;;;;7.90;4.47;;;17.50;99.90;;;;;;4913271;29;20040;-93
2022/06/26 05:11:12;;;;;;;9.10;4.47;;;18.00;99.90;;;;;;4948443;28;20047;-94
2022/06/26 05:13:43;;;;;;;6.88;3.70;;;18.90;99.90;;;;;;4950251;29;20094;-95
2022/06/26 05:16:27;;;;;;;7.03;3.65;;;19.60;99.90;;;;;;4929210;29;20062;-92
2022/06/26 05:18:52;;;;;;;8.18;3.63;;;20.00;99.90;;;;;;4928147;29;20094;-95
2022/06/26 05:21:19;;;;;;;9.68;3.42;;;20.50;99.90;;;;;;4927925;29;20639;-96
2022/06/26 05:23:45;;;;;;;5.72;3.20;;;20.40;99.90;;;;;;4928107;29;20048;-92
2022/06/26 05:26:13;;;;;;;8.63;3.70;;;20.10;99.90;;;;;;4929858;29;20051;-95
2022/06/26 05:28:39;;;;;;;7.43;3.47;;;19.80;99.90;;;;;;4937628;29;20640;-94
2022/06/26 05:31:05;;;;;;;6.35;3.47;;;19.50;99.90;;;;;;4930611;29;20079;-92
2022/06/26 05:33:31;;;;;;;7.97;4.07;;;19.30;99.90;;;;;;4932206;29;20088;-94
2022/06/26 05:35:57;;;;;;;8.48;4.78;;;19.10;99.90;;;;;;4937214;29;20469;-95
2022/06/26 05:38:22;;;;;;;10.15;4.72;;;18.90;99.90;;;;;;4932206;29;20039;-95
2022/06/26 05:40:48;;;;;;;10.25;4.78;;;18.70;99.90;;;;;;4945092;28;20047;-95
2022/06/26 05:43:14;;;;;;;7.50;5.15;;;18.60;99.90;;;;;;4949772;28;20051;-95
2022/06/26 05:45:45;;;;;;;9.20;4.93;;;18.50;99.90;;;;;;4951140;29;20036;-95
2022/06/26 05:48:14;;;;;;;6.63;4.82;;;18.50;99.90;;;;;;4941739;29;20485;-95
2022/06/26 05:50:40;;;;;;;7.82;5.15;;;18.40;99.90;;;;;;4919230;29;20039;-95
2022/06/26 05:53:06;;;;;;;6.72;5.25;;;18.30;99.90;;;;;;4929804;29;20042;-96
2022/06/26 05:55:33;;;;;;;8.30;5.68;;;18.30;99.90;;;;;;4924838;29;20054;-94
2022/06/26 05:57:59;;;;;;;12.57;6.18;;;18.30;99.90;;;;;;4931424;29;20051;-94
2022/06/26 06:00:25;;;;;;;8.15;5.78;;;18.30;99.90;;;;;;4933563;29;20039;-95
2022/06/26 06:02:51;;;;;;;8.70;7.20;;;18.30;99.90;;;;;;4915411;29;20047;-95
2022/06/26 06:05:17;;;;;;;9.85;7.10;;;18.30;99.90;;;;;;4923170;29;20532;-87
2022/06/26 06:07:43;;;;;;;10.63;8.13;;;18.30;99.90;;;;;;4937771;28;20056;-85
2022/06/26 06:10:09;;;;;;;11.73;7.63;;;18.30;99.90;;;;;;4920300;29;20056;-84
2022/06/26 06:12:36;;;;;;;12.30;8.82;;;18.30;99.90;;;;;;4924214;29;20178;-86
2022/06/26 06:15:03;;;;;;;11.88;8.80;;;18.30;99.90;;;;;;4923584;29;20082;-85
2022/06/26 06:17:38;;;;;;;11.32;7.40;;;18.40;99.90;;;;;;4922972;29;20043;-86
2022/06/26 06:20:15;;;;;;;12.73;9.13;;;18.40;99.90;;;;;;4917008;29;20556;-85
2022/06/26 06:22:54;;;;;;;11.30;8.93;;;18.50;99.90;;;;;;4919387;29;20043;-85
2022/06/26 06:25:22;;;;;;;11.85;9.23;;;18.50;99.90;;;;;;4920999;29;20135;-86
2022/06/26 06:27:48;;;;;;;15.60;11.20;;;18.50;99.90;;;;;;4939602;28;20054;-84
2022/06/26 06:30:14;;;;;;;14.45;10.60;;;18.40;99.90;;;;;;4920429;29;21020;-85
2022/06/26 06:32:41;;;;;;;16.05;11.07;;;18.40;99.90;;;;;;4935195;29;20646;-85
2022/06/26 06:35:08;;;;;;;16.08;10.93;;;18.40;99.90;;;;;;4917489;29;20126;-85
2022/06/26 06:37:34;;;;;;;15.98;12.13;;;18.30;99.90;;;;;;4934299;28;20051;-85
2022/06/26 06:40:00;;;;;;;14.90;12.63;;;18.30;99.90;;;;;;4921454;29;20055;-85
2022/06/26 06:42:26;;;;;;;16.55;12.23;;;18.30;99.90;;;;;;4923127;29;20071;-85
2022/06/26 06:44:52;;;;;;;17.20;12.38;;;18.40;99.90;;;;;;4924746;29;20047;-85
2022/06/26 06:47:17;;;;;;;16.92;12.75;;;18.40;99.90;;;;;;4900744;29;20043;-84
2022/06/26 06:49:43;;;;;;;16.95;13.10;;;18.40;99.90;;;;;;4919950;29;20043;-84
2022/06/26 06:52:09;;;;;;;15.95;12.93;;;18.40;99.90;;;;;;4935453;29;20044;-85
2022/06/26 06:54:35;;;;;;;19.35;14.75;;;18.40;99.90;;;;;;4936716;29;20047;-85
2022/06/26 06:57:01;;;;;;;23.08;16.83;;;18.40;99.90;;;;;;4923251;29;20059;-84
2022/06/26 06:59:27;;;;;;;22.35;18.50;;;18.40;99.90;;;;;;4913878;29;20048;-83
2022/06/26 07:01:52;;;;;;;24.92;19.55;;;18.40;99.90;;;;;;4919482;29;20111;-84
2022/06/26 07:04:19;;;;;;;24.23;19.13;;;18.30;99.90;;;;;;4937127;29;20417;-86
2022/06/26 07:06:45;;;;;;;26.42;20.08;;;18.30;99.90;;;;;;4919701;29;20064;-85
2022/06/26 07:09:14;;;;;;;28.65;21.58;;;18.30;99.90;;;;;;4937504;28;20075;-85
2022/06/26 07:11:39;;;;;;;25.75;21.67;;;18.20;99.90;;;;;;4922670;29;20086;-84
2022/06/26 07:14:06;;;;;;;25.52;21.70;;;18.20;99.90;;;;;;4939092;28;20476;-84
2022/06/26 07:16:31;;;;;;;27.42;21.80;;;18.20;99.90;;;;;;4917846;29;20043;-85
2022/06/26 07:19:04;;;;;;;25.42;22.13;;;18.20;99.90;;;;;;4937954;28;20074;-85
2022/06/26 07:21:30;;;;;;;28.90;22.13;;;18.30;99.90;;;;;;4936177;28;20407;-84
2022/06/26 07:23:55;;;;;;;27.15;22.23;;;18.30;99.90;;;;;;4920400;29;20163;-85
2022/06/26 07:26:24;;;;;;;27.95;21.48;;;18.70;99.90;;;;;;4918425;29;20043;-85
2022/06/26 07:28:50;;;;;;;23.15;19.00;;;19.20;99.90;;;;;;4929283;29;20456;-85
2022/06/26 07:31:15;;;;;;;25.00;18.23;;;19.80;99.90;;;;;;4947087;28;20047;-85
2022/06/26 07:36:26;;;;;;;20.77;15.95;;;20.60;99.90;;;;;;4947126;28;20047;-85
2022/06/26 07:38:51;;;;;;;20.00;15.18;;;20.80;99.90;;;;;;4952047;28;20039;-85
2022/06/26 07:41:17;;;;;;;21.83;15.02;;;21.30;99.90;;;;;;4966794;28;20023;-88
2022/06/26 07:43:43;;;;;;;16.58;12.52;;;21.50;99.90;;;;;;4964484;28;20047;-84
2022/06/26 07:46:08;;;;;;;14.73;11.57;;;21.60;99.90;;;;;;4946686;29;20120;-82
2022/06/26 07:48:34;;;;;;;16.38;11.18;;;21.90;99.90;;;;;;4956280;28;20475;-84
2022/06/26 07:51:01;;;;;;;18.23;13.10;;;22.00;99.90;;;;;;4944274;29;20076;-81
2022/06/26 07:53:27;;;;;;;17.08;11.52;;;22.30;99.90;;;;;;4958987;28;20043;-83
2022/06/26 07:55:54;;;;;;;14.18;10.23;;;22.50;99.90;;;;;;4942476;29;20058;-83
2022/06/26 07:58:20;;;;;;;14.65;10.02;;;22.60;99.90;;;;;;4942298;29;20054;-84
2022/06/26 08:00:46;;;;;;;13.52;9.82;;;22.50;99.90;;;;;;4932298;29;20061;-83
2022/06/26 08:03:14;;;;;;;12.60;8.18;;;22.20;99.90;;;;;;4941212;28;20448;-83
2022/06/26 08:05:41;;;;;;;11.98;8.02;;;22.10;99.90;;;;;;4929204;29;20054;-83
2022/06/26 08:08:11;;;;;;;11.38;7.28;;;22.20;99.90;;;;;;4918270;29;20051;-83
2022/06/26 08:10:36;;;;;;;13.18;8.27;;;22.20;99.90;;;;;;4942492;28;20531;-84
2022/06/26 08:13:03;;;;;;;13.48;7.57;;;22.10;99.90;;;;;;4936136;28;20130;-83
2022/06/26 08:15:29;;;;;;;11.82;8.02;;;22.10;99.90;;;;;;4938771;28;20130;-84
2022/06/26 08:17:55;;;;;;;11.07;7.85;;;22.30;99.90;;;;;;4936728;28;20520;-84
2022/06/26 08:20:21;;;;;;;11.10;7.93;;;22.50;99.90;;;;;;4928511;28;20051;-85
2022/06/26 08:22:46;;;;;;;14.45;9.63;;;22.50;99.90;;;;;;4934021;28;20070;-83
2022/06/26 08:25:12;;;;;;;12.18;8.52;;;22.30;99.90;;;;;;4923939;29;20054;-83
2022/06/26 08:27:38;;;;;;;16.55;9.50;;;22.00;99.90;;;;;;4945128;28;20051;-83
2022/06/26 08:30:05;;;;;;;15.63;8.50;;;21.80;99.90;;;;;;4902060;29;20055;-84
2022/06/26 08:32:32;;;;;;;12.60;8.27;;;21.60;99.90;;;;;;4916548;29;20051;-83
2022/06/26 08:34:58;;;;;;;15.50;7.95;;;21.50;99.90;;;;;;4922830;28;20069;-85
2022/06/26 08:37:24;;;;;;;13.55;7.15;;;21.60;99.90;;;;;;4938467;28;20390;-81
2022/06/26 08:39:49;;;;;;;11.82;6.70;;;21.50;99.90;;;;;;4911729;29;20062;-78
2022/06/26 08:42:17;;;;;;;12.30;7.70;;;21.60;99.90;;;;;;4941681;29;20039;-82
2022/06/26 08:44:44;;;;;;;12.32;7.07;;;21.70;99.90;;;;;;4931894;29;20090;-80
2022/06/26 08:47:12;;;;;;;11.93;7.15;;;21.90;99.90;;;;;;4942985;28;20046;-80
2022/06/26 08:49:40;;;;;;;9.18;6.35;;;22.10;99.90;;;;;;4929395;29;20054;-81
2022/06/26 08:52:09;;;;;;;8.50;5.20;;;22.50;99.90;;;;;;4931201;29;20043;-81
2022/06/26 08:54:35;;;;;;;8.35;5.13;;;22.80;99.90;;;;;;4945015;29;20493;-81
2022/06/26 08:57:01;;;;;;;11.35;5.85;;;23.00;99.90;;;;;;4926877;29;20067;-80
2022/06/26 08:59:27;;;;;;;9.52;6.03;;;22.90;99.90;;;;;;4926298;29;20046;-81
2022/06/26 09:01:53;;;;;;;8.77;4.65;;;22.70;99.90;;;;;;4926669;29;20051;-80
2022/06/26 09:04:19;;;;;;;6.57;3.63;;;22.40;99.90;;;;;;4943992;29;20043;-80
2022/06/26 09:06:45;;;;;;;7.18;2.60;;;22.30;99.90;;;;;;4941744;28;20050;-81
2022/06/26 09:09:16;;;;;;;5.03;2.22;;;22.30;99.90;;;;;;4929144;29;20044;-79
2022/06/26 09:11:43;;;;;;;4.88;1.80;;;22.70;99.90;;;;;;4940157;28;20047;-80
2022/06/26 09:14:12;;;;;;;5.60;2.33;;;23.30;99.90;;;;;;4942917;28;20048;-80
2022/06/26 09:16:41;;;;;;;6.82;2.80;;;23.80;99.90;;;;;;4944438;29;20513;-81
2022/06/26 09:19:09;;;;;;;5.70;2.28;;;24.00;99.90;;;;;;4929187;29;20079;-78
2022/06/26 09:21:35;;;;;;;6.40;2.70;;;24.40;99.90;;;;;;4933653;29;20127;-79
2022/06/26 09:24:01;;;;;;;5.90;2.63;;;24.60;99.90;;;;;;4934726;29;20531;-81
2022/06/26 09:26:27;;;;;;;5.70;2.63;;;24.90;99.90;;;;;;4931919;29;20067;-80
2022/06/26 09:28:54;;;;;;;4.60;2.60;;;25.10;99.90;;;;;;4922458;29;20052;-78
2022/06/26 09:31:21;;;;;;;5.53;2.17;;;25.30;99.90;;;;;;4939522;29;20051;-81
2022/06/26 09:33:47;;;;;;;5.25;2.15;;;25.50;99.90;;;;;;4930237;29;20040;-80
2022/06/26 09:36:18;;;;;;;5.07;1.80;;;25.50;99.90;;;;;;4921312;29;20127;-79
2022/06/26 09:38:51;;;;;;;4.57;1.95;;;25.10;99.90;;;;;;4920683;29;20046;-80
2022/06/26 09:41:29;;;;;;;5.95;1.90;;;24.60;99.90;;;;;;4942606;29;20397;-78
2022/06/26 09:43:55;;;;;;;5.55;2.03;;;24.60;99.90;;;;;;4927882;29;20044;-79
2022/06/26 09:46:29;;;;;;;5.95;1.95;;;25.00;99.90;;;;;;4921261;29;20139;-78
2022/06/26 09:48:57;;;;;;;4.75;1.83;;;25.40;99.90;;;;;;4928288;29;20048;-79
2022/06/26 09:51:23;;;;;;;6.68;1.90;;;25.70;99.90;;;;;;4918153;29;20044;-80
2022/06/26 09:53:49;;;;;;;3.85;1.45;;;26.00;99.90;;;;;;4915761;29;20106;-80
2022/06/26 09:56:16;;;;;;;4.97;2.00;;;26.10;99.90;;;;;;4941634;29;20072;-78
2022/06/26 09:58:42;;;;;;;5.97;2.28;;;26.10;99.90;;;;;;4930617;29;20054;-79
2022/06/26 10:06:39;;;;;;;4.45;2.00;;;25.70;99.90;;;;;;4945456;29;20056;-80
2022/06/26 10:09:07;;;;;;;4.68;1.77;;;25.70;99.90;;;;;;4924627;29;20042;-79
2022/06/26 10:11:36;;;;;;;6.22;2.00;;;25.90;99.90;;;;;;4917512;29;20185;-80
2022/06/26 10:14:35;;;;;;;6.07;2.03;;;26.00;99.90;;;;;;4921967;29;20079;-79
2022/06/26 10:17:20;;;;;;;6.25;2.10;;;26.20;99.90;;;;;;4926669;29;20051;-78
2022/06/26 10:19:46;;;;;;;5.50;2.00;;;26.50;99.90;;;;;;4919489;29;20044;-79
2022/06/26 10:22:13;;;;;;;5.88;2.33;;;26.40;99.90;;;;;;4940303;29;20040;-79
2022/06/26 10:24:56;;;;;;;7.18;2.25;;;26.20;99.90;;;;;;4936162;29;20059;-79
2022/06/26 10:27:33;;;;;;;6.38;2.15;;;25.80;99.90;;;;;;4911252;29;20413;-79
2022/06/26 10:30:13;;;;;;;5.30;2.53;;;25.50;99.90;;;;;;4940717;29;20051;-79
2022/06/26 10:32:40;;;;;;;7.07;2.30;;;25.20;99.90;;;;;;4913784;29;20051;-79
2022/06/26 10:35:07;;;;;;;6.97;2.45;;;24.80;99.90;;;;;;4926041;29;20127;-79
2022/06/26 10:37:49;;;;;;;4.93;2.08;;;24.60;99.90;;;;;;4930739;29;20081;-78
2022/06/26 10:43:28;;;;;;;5.45;1.90;;;24.30;99.90;;;;;;4925113;29;20051;-79
2022/06/26 10:46:01;;;;;;;3.53;1.60;;;24.40;99.90;;;;;;4931454;29;20040;-80
2022/06/26 10:48:27;;;;;;;4.45;1.90;;;24.30;99.90;;;;;;4928781;29;20043;-79
2022/06/26 10:51:03;;;;;;;5.13;1.88;;;24.30;99.90;;;;;;4934936;29;20051;-78
2022/06/26 10:53:32;;;;;;;4.88;1.80;;;24.20;99.90;;;;;;4917097;29;20040;-78
2022/06/26 10:56:00;;;;;;;5.25;1.77;;;24.20;99.90;;;;;;4941232;28;20054;-78
2022/06/26 10:58:32;;;;;;;6.88;1.75;;;24.30;99.90;;;;;;4911957;29;20618;-78
2022/06/26 11:00:59;;;;;;;4.72;1.73;;;24.50;99.90;;;;;;4941082;28;20548;-78
2022/06/26 11:03:26;;;;;;;7.97;2.33;;;24.70;99.90;;;;;;4936868;29;20032;-80
2022/06/26 11:06:12;;;;;;;5.05;2.10;;;24.90;99.90;;;;;;4921394;29;20052;-78
2022/06/26 11:08:43;;;;;;;4.70;1.73;;;25.00;99.90;;;;;;4918944;29;20044;-78
2022/06/26 11:11:14;;;;;;;5.18;1.92;;;25.20;99.90;;;;;;4921658;29;20078;-79
2022/06/26 11:13:59;;;;;;;6.40;2.30;;;25.30;99.90;;;;;;4912760;29;20569;-78
2022/06/26 11:16:32;;;;;;;6.97;2.13;;;25.50;99.90;;;;;;4906285;29;20047;-78
2022/06/26 11:18:59;;;;;;;4.95;1.90;;;25.50;99.90;;;;;;4922649;29;20079;-77
2022/06/26 11:21:26;;;;;;;4.88;1.50;;;25.50;99.90;;;;;;4917555;29;20417;-77
2022/06/26 11:23:54;;;;;;;5.13;1.58;;;25.30;99.90;;;;;;4943755;28;20501;-78
2022/06/26 11:26:21;;;;;;;4.35;1.40;;;25.30;99.90;;;;;;4922805;29;20050;-78
2022/06/26 11:28:55;;;;;;;6.03;1.77;;;25.40;99.90;;;;;;4928234;29;20405;-78
2022/06/26 11:31:32;;;;;;;6.68;1.80;;;25.50;99.90;;;;;;4916805;29;20062;-78
2022/06/26 11:34:12;;;;;;;5.97;1.58;;;25.60;99.90;;;;;;4946709;29;20178;-79
2022/06/26 11:36:57;;;;;;;6.25;1.75;;;25.80;99.90;;;;;;4930758;29;20051;-79
2022/06/26 11:39:24;;;;;;;6.10;1.83;;;26.10;99.90;;;;;;4944769;29;20139;-78
2022/06/26 11:41:50;;;;;;;5.22;1.85;;;26.10;99.90;;;;;;4937252;28;20050;-78
2022/06/26 11:44:17;;;;;;;4.78;1.60;;;25.90;99.90;;;;;;4934706;28;20062;-79
2022/06/26 11:46:44;;;;;;;5.65;1.92;;;25.60;99.90;;;;;;4923366;29;20040;-80
2022/06/26 11:49:11;;;;;;;4.07;1.70;;;25.50;99.90;;;;;;4940936;28;20086;-78
2022/06/26 11:51:37;;;;;;;6.25;1.95;;;25.30;99.90;;;;;;4922723;29;20055;-78
2022/06/26 11:54:04;;;;;;;5.25;1.90;;;25.00;99.90;;;;;;4943163;28;20477;-78
2022/06/26 11:56:30;;;;;;;5.50;1.83;;;24.80;99.90;;;;;;4943580;28;20686;-78
2022/06/26 11:58:58;;;;;;;6.93;2.25;;;24.50;99.90;;;;;;4928035;29;20400;-78
2022/06/26 12:01:36;;;;;;;6.47;2.15;;;24.30;99.90;;;;;;4933270;29;20087;-78
2022/06/26 12:04:03;;;;;;;5.75;1.92;;;24.30;99.90;;;;;;4927553;29;20047;-78
2022/06/26 12:06:32;;;;;;;5.40;1.65;;;24.40;99.90;;;;;;4924540;29;20568;-78
2022/06/26 12:09:15;;;;;;;5.95;2.30;;;24.40;99.90;;;;;;4929732;28;20051;-78
2022/06/26 12:11:43;;;;;;;6.32;1.83;;;24.50;99.90;;;;;;4929584;29;20070;-79
2022/06/26 12:14:13;;;;;;;5.57;1.75;;;24.50;99.90;;;;;;4932227;28;20059;-79
2022/06/26 12:16:52;;;;;;;;;;;24.40;99.90;;;;;;4930490;29;20749;-78
2022/06/26 12:19:19;;;;;;;4.88;1.80;;;24.50;99.90;;;;;;4931334;29;19937;-78
2022/06/26 12:21:53;;;;;;;5.97;1.80;;;24.50;99.90;;;;;;4911698;29;20062;-79
2022/06/26 12:24:20;;;;;;;5.07;1.70;;;24.60;99.90;;;;;;4926768;29;20046;-79
2022/06/26 12:26:46;;;;;;;7.70;1.75;;;24.70;99.90;;;;;;4939209;28;20426;-79
2022/06/26 12:29:17;;;;;;;6.18;1.67;;;24.70;99.90;;;;;;4923305;29;20593;-78
2022/06/26 12:31:43;;;;;;;8.07;1.77;;;24.70;99.90;;;;;;4921456;29;20051;-79
2022/06/26 12:34:10;;;;;;;4.45;1.67;;;24.60;99.90;;;;;;4917771;29;20416;-79
2022/06/26 12:36:37;;;;;;;5.25;1.80;;;24.60;99.90;;;;;;4932797;29;20938;-79
2022/06/26 12:39:11;;;;;;;4.95;1.70;;;24.50;99.90;;;;;;4939381;28;20393;-78
2022/06/26 12:41:40;;;;;;;7.35;1.90;;;24.40;99.90;;;;;;4934637;29;20054;-77
2022/06/26 12:44:06;;;;;;;7.05;1.98;;;24.50;99.90;;;;;;4924843;28;20052;-77
2022/06/26 12:46:32;;;;;;;7.47;2.30;;;24.50;99.90;;;;;;4924943;29;20122;-79
2022/06/26 12:48:59;;;;;;;9.07;1.90;;;24.40;99.90;;;;;;4918158;29;20105;-79
2022/06/26 12:51:27;;;;;;;6.82;1.77;;;24.30;99.90;;;;;;4921543;29;20051;-78
2022/06/26 12:53:54;;;;;;;6.53;1.75;;;24.30;99.90;;;;;;4924202;29;20043;-78
2022/06/26 12:56:20;;;;;;;8.20;1.98;;;24.40;99.90;;;;;;4921582;29;20145;-77
2022/06/26 12:58:46;;;;;;;7.28;2.58;;;24.30;99.90;;;;;;4923755;29;20512;-79
2022/06/26 13:01:12;;;;;;;9.65;2.35;;;24.10;99.90;;;;;;4927251;29;20044;-79
2022/06/26 13:03:38;;;;;;;6.47;1.80;;;23.90;99.90;;;;;;4921145;28;20350;-79
2022/06/26 13:06:04;;;;;;;7.03;2.17;;;23.80;99.90;;;;;;4928912;28;20058;-78